createdAt,value
2023-05-22T00:01:12.160Z,17.55
2023-05-22T00:06:10.152Z,18.77
2023-05-22T00:08:37.293Z,18.15
2023-05-22T00:11:05.056Z,19.67
2023-05-22T00:13:32.229Z,20.58
2023-05-22T00:15:59.366Z,23.48
2023-05-22T00:18:27.120Z,18.45
2023-05-22T00:20:54.290Z,29.15
2023-05-22T00:23:22.036Z,21.77
2023-05-22T00:25:50.677Z,22.00
2023-05-22T00:28:17.841Z,19.67
2023-05-22T00:30:45.010Z,21.20
2023-05-22T00:33:12.403Z,21.05
2023-05-22T00:35:39.625Z,27.27
2023-05-22T00:38:06.749Z,20.90
2023-05-22T00:40:33.968Z,20.20
2023-05-22T00:43:07.813Z,19.88
2023-05-22T00:45:34.995Z,20.85
2023-05-22T00:48:02.244Z,20.52
2023-05-22T00:50:29.573Z,20.88
2023-05-22T00:52:57.777Z,23.15
2023-05-22T00:55:24.896Z,26.20
2023-05-22T00:57:52.305Z,23.52
2023-05-22T01:00:19.537Z,23.70
2023-05-22T01:02:46.861Z,22.08
2023-05-22T01:05:18.121Z,28.88
2023-05-22T01:07:48.405Z,23.98
2023-05-22T01:10:15.709Z,24.92
2023-05-22T01:12:55.923Z,24.00
2023-05-22T01:15:29.135Z,24.73
2023-05-22T01:18:04.415Z,25.35
2023-05-22T01:20:34.493Z,22.95
2023-05-22T01:23:10.577Z,22.85
2023-05-22T01:25:43.555Z,22.98
2023-05-22T01:28:37.889Z,27.55
2023-05-22T01:31:12.535Z,22.92
2023-05-22T01:33:44.504Z,22.85
2023-05-22T01:36:13.592Z,24.02
2023-05-22T01:38:42.345Z,24.13
2023-05-22T01:41:10.103Z,23.98
2023-05-22T01:43:37.631Z,22.92
2023-05-22T01:46:05.987Z,24.38
2023-05-22T01:51:11.290Z,26.15
2023-05-22T01:53:42.269Z,22.38
2023-05-22T01:56:15.239Z,23.92
2023-05-22T01:59:01.486Z,23.50
2023-05-22T02:01:31.025Z,25.58
2023-05-22T02:03:59.610Z,22.45
2023-05-22T02:06:29.558Z,24.80
2023-05-22T02:08:56.745Z,27.30
2023-05-22T02:11:26.793Z,22.88
2023-05-22T02:13:53.963Z,31.08
2023-05-22T02:16:22.210Z,32.80
2023-05-22T02:18:49.583Z,26.55
2023-05-22T02:21:16.716Z,27.73
2023-05-22T02:23:43.901Z,25.88
2023-05-22T02:26:10.601Z,27.65
2023-05-22T02:28:37.961Z,28.77
2023-05-22T02:31:04.792Z,29.90
2023-05-22T02:33:31.511Z,34.78
2023-05-22T02:35:58.310Z,28.60
2023-05-22T02:38:25.023Z,29.35
2023-05-22T02:40:51.830Z,31.17
2023-05-22T02:43:18.639Z,29.45
2023-05-22T02:45:45.554Z,44.75
2023-05-22T02:48:13.168Z,29.20
2023-05-22T02:50:40.373Z,47.17
2023-05-22T02:53:08.468Z,28.73
2023-05-22T02:55:35.276Z,31.15
2023-05-22T02:58:03.281Z,29.38
2023-05-22T03:00:29.977Z,28.50
2023-05-22T03:02:56.809Z,41.15
2023-05-22T03:05:23.617Z,29.15
2023-05-22T03:07:50.580Z,30.42
2023-05-22T03:10:17.667Z,28.92
2023-05-22T03:12:45.668Z,27.08
2023-05-22T03:15:12.478Z,28.75
2023-05-22T03:17:39.242Z,27.83
2023-05-22T03:20:08.999Z,28.70
2023-05-22T03:22:35.828Z,88.40
2023-05-22T03:25:02.612Z,31.88
2023-05-22T03:27:29.756Z,29.20
2023-05-22T03:29:56.972Z,33.35
2023-05-22T03:32:24.113Z,25.52
2023-05-22T03:34:50.862Z,34.92
2023-05-22T03:37:17.700Z,26.25
2023-05-22T03:39:44.867Z,24.83
2023-05-22T03:42:13.393Z,26.48
2023-05-22T03:47:06.762Z,23.65
2023-05-22T03:49:33.580Z,24.75
2023-05-22T03:52:00.831Z,24.27
2023-05-22T03:54:27.544Z,25.55
2023-05-22T03:56:54.265Z,24.75
2023-05-22T03:59:21.678Z,24.60
2023-05-22T04:01:48.831Z,25.13
2023-05-22T04:04:16.582Z,24.88
2023-05-22T04:06:43.638Z,25.03
2023-05-22T04:09:11.869Z,25.08
2023-05-22T04:11:42.463Z,24.98
2023-05-22T04:14:09.852Z,25.35
2023-05-22T04:16:36.710Z,25.35
2023-05-22T04:19:03.807Z,24.40
2023-05-22T04:21:34.066Z,24.17
2023-05-22T04:24:07.359Z,23.40
2023-05-22T04:26:34.312Z,25.70
2023-05-22T04:29:01.237Z,24.75
2023-05-22T04:31:28.429Z,25.77
2023-05-22T04:33:55.917Z,24.88
2023-05-22T04:36:25.913Z,25.33
2023-05-22T04:38:54.050Z,26.42
2023-05-22T04:41:22.626Z,26.70
2023-05-22T04:43:49.827Z,26.88
2023-05-22T04:46:16.603Z,26.85
2023-05-22T04:48:43.371Z,29.20
2023-05-22T04:51:10.357Z,30.50
2023-05-22T04:53:38.600Z,27.05
2023-05-22T04:56:06.346Z,27.38
2023-05-22T04:58:33.310Z,29.25
2023-05-22T05:01:00.187Z,26.45
2023-05-22T05:03:28.363Z,32.10
2023-05-22T05:05:55.226Z,26.50
2023-05-22T05:08:21.964Z,27.08
2023-05-22T05:10:48.870Z,28.55
2023-05-22T05:13:15.737Z,29.23
2023-05-22T05:15:42.411Z,27.83
2023-05-22T05:18:09.170Z,29.23
2023-05-22T05:20:37.071Z,28.27
2023-05-22T05:23:03.904Z,28.42
2023-05-22T05:25:30.802Z,28.90
2023-05-22T05:27:57.700Z,27.20
2023-05-22T05:30:24.428Z,31.55
2023-05-22T05:32:51.204Z,30.20
2023-05-22T05:35:17.960Z,25.95
2023-05-22T05:37:44.675Z,27.70
2023-05-22T05:40:12.036Z,33.30
2023-05-22T05:42:38.767Z,27.55
2023-05-22T05:45:05.804Z,23.88
2023-05-22T05:47:32.922Z,25.15
2023-05-22T05:50:00.788Z,27.67
2023-05-22T05:52:32.402Z,27.17
2023-05-22T05:55:02.346Z,25.33
2023-05-22T05:57:31.216Z,23.13
2023-05-22T05:59:58.921Z,23.70
2023-05-22T06:02:25.835Z,25.45
2023-05-22T06:04:53.756Z,23.77
2023-05-22T06:07:21.005Z,27.10
2023-05-22T06:09:47.750Z,23.15
2023-05-22T06:12:14.556Z,26.58
2023-05-22T06:14:42.243Z,25.08
2023-05-22T06:17:11.682Z,24.75
2023-05-22T06:19:38.625Z,21.92
2023-05-22T06:22:05.545Z,23.33
2023-05-22T06:24:32.611Z,24.25
2023-05-22T06:27:00.173Z,24.95
2023-05-22T06:29:27.011Z,25.85
2023-05-22T06:31:53.762Z,24.77
2023-05-22T06:34:22.421Z,21.35
2023-05-22T06:36:52.106Z,21.77
2023-05-22T06:39:24.778Z,23.15
2023-05-22T06:41:51.449Z,22.80
2023-05-22T06:44:18.160Z,21.75
2023-05-22T06:46:45.066Z,22.70
2023-05-22T06:49:11.807Z,22.13
2023-05-22T06:51:38.549Z,21.98
2023-05-22T06:54:07.182Z,23.08
2023-05-22T06:56:34.001Z,22.25
2023-05-22T06:59:01.115Z,22.33
2023-05-22T07:01:29.360Z,22.52
2023-05-22T07:04:05.107Z,23.95
2023-05-22T07:06:33.632Z,23.73
2023-05-22T07:11:27.450Z,22.73
2023-05-22T07:13:54.216Z,23.77
2023-05-22T07:16:21.005Z,23.13
2023-05-22T07:18:47.762Z,24.80
2023-05-22T07:21:14.501Z,23.52
2023-05-22T07:23:41.237Z,27.30
2023-05-22T07:26:08.260Z,24.40
2023-05-22T07:28:36.110Z,23.52
2023-05-22T07:31:02.891Z,25.60
2023-05-22T07:33:29.651Z,24.08
2023-05-22T07:35:57.430Z,23.17
2023-05-22T07:38:24.229Z,23.48
2023-05-22T07:40:51.006Z,23.95
2023-05-22T07:43:17.804Z,22.92
2023-05-22T07:45:44.802Z,21.90
2023-05-22T07:48:11.970Z,21.35
2023-05-22T07:50:38.829Z,22.25
2023-05-22T07:53:06.603Z,22.60
2023-05-22T07:55:33.330Z,20.73
2023-05-22T07:58:00.189Z,19.90
2023-05-22T08:00:27.264Z,20.38
2023-05-22T08:02:54.030Z,21.67
2023-05-22T08:05:22.046Z,20.88
2023-05-22T08:07:49.438Z,23.60
2023-05-22T08:10:17.550Z,21.83
2023-05-22T08:12:44.570Z,20.25
2023-05-22T08:15:11.615Z,21.30
2023-05-22T08:17:39.309Z,20.98
2023-05-22T08:20:07.261Z,20.55
2023-05-22T08:22:34.762Z,21.73
2023-05-22T08:25:02.022Z,22.23
2023-05-22T08:27:30.210Z,21.00
2023-05-22T08:29:57.393Z,21.95
2023-05-22T08:32:24.528Z,22.52
2023-05-22T08:34:51.688Z,21.20
2023-05-22T08:37:18.805Z,21.15
2023-05-22T08:39:46.019Z,20.08
2023-05-22T08:42:13.219Z,22.42
2023-05-22T08:44:40.586Z,22.30
2023-05-22T08:47:11.266Z,22.83
2023-05-22T08:49:39.969Z,24.83
2023-05-22T08:52:23.628Z,23.38
2023-05-22T08:54:53.525Z,23.27
2023-05-22T08:57:21.517Z,22.35
2023-05-22T08:59:49.072Z,23.83
2023-05-22T09:02:17.369Z,24.97
2023-05-22T09:04:44.593Z,23.77
2023-05-22T09:07:11.883Z,24.02
2023-05-22T09:09:42.336Z,26.63
2023-05-22T09:12:10.477Z,25.38
2023-05-22T09:14:41.617Z,24.13
2023-05-22T09:17:11.899Z,26.73
2023-05-22T09:19:39.757Z,26.40
2023-05-22T09:22:07.061Z,25.70
2023-05-22T09:24:44.107Z,24.13
2023-05-22T09:27:11.690Z,21.25
2023-05-22T09:30:08.673Z,22.70
2023-05-22T09:32:36.132Z,22.00
2023-05-22T09:35:04.794Z,27.87
2023-05-22T09:37:35.514Z,27.33
2023-05-22T09:40:11.145Z,24.90
2023-05-22T09:42:38.046Z,21.23
2023-05-22T09:45:06.497Z,21.45
2023-05-22T09:50:07.416Z,23.98
2023-05-22T09:52:35.346Z,23.50
2023-05-22T09:55:04.709Z,25.45
2023-05-22T09:57:45.385Z,24.23
2023-05-22T10:00:15.550Z,25.88
2023-05-22T10:02:46.044Z,27.15
2023-05-22T10:05:21.348Z,26.08
2023-05-22T10:07:50.200Z,25.08
2023-05-22T10:10:19.096Z,25.20
2023-05-22T10:12:51.532Z,22.63
2023-05-22T10:15:18.994Z,22.20
2023-05-22T10:17:46.587Z,23.63
2023-05-22T10:20:14.499Z,20.60
2023-05-22T10:22:42.137Z,19.50
2023-05-22T10:25:10.727Z,16.73
2023-05-22T10:27:38.710Z,14.32
2023-05-22T10:30:11.891Z,14.40
2023-05-22T10:32:44.974Z,13.13
2023-05-22T10:35:31.375Z,12.90
2023-05-22T10:38:28.201Z,15.40
2023-05-22T10:40:56.197Z,12.40
2023-05-22T10:43:23.685Z,13.68
2023-05-22T10:46:02.096Z,13.37
2023-05-22T10:48:29.436Z,12.73
2023-05-22T10:50:57.597Z,11.95
2023-05-22T10:53:28.897Z,12.30
2023-05-22T10:55:56.992Z,15.20
2023-05-22T10:58:30.844Z,14.90
2023-05-22T11:01:17.132Z,13.85
2023-05-22T11:03:54.331Z,11.75
2023-05-22T11:06:31.176Z,14.73
2023-05-22T11:08:58.405Z,13.50
2023-05-22T11:11:26.288Z,17.10
2023-05-22T11:13:54.106Z,15.65
2023-05-22T11:16:22.543Z,17.90
2023-05-22T11:18:49.777Z,19.30
2023-05-22T11:21:16.992Z,18.42
2023-05-22T11:23:44.165Z,17.13
2023-05-22T11:26:22.569Z,19.83
2023-05-22T11:28:51.874Z,16.80
2023-05-22T11:31:19.540Z,18.48
2023-05-22T11:33:48.332Z,16.98
2023-05-22T11:36:16.194Z,16.73
2023-05-22T11:38:43.814Z,15.85
2023-05-22T11:41:12.821Z,16.85
2023-05-22T11:43:39.997Z,15.70
2023-05-22T11:46:11.112Z,14.30
2023-05-22T11:48:41.231Z,16.58
2023-05-22T11:51:09.341Z,14.18
2023-05-22T11:53:37.061Z,12.40
2023-05-22T11:56:04.820Z,20.17
2023-05-22T11:58:32.655Z,14.13
2023-05-22T12:01:03.802Z,11.30
2023-05-22T12:03:31.457Z,10.57
2023-05-22T12:05:59.139Z,10.70
2023-05-22T12:08:26.634Z,11.45
2023-05-22T12:10:55.204Z,12.95
2023-05-22T12:13:29.970Z,12.25
2023-05-22T12:16:00.959Z,14.07
2023-05-22T12:18:28.865Z,13.85
2023-05-22T12:20:56.013Z,13.85
2023-05-22T12:23:26.669Z,12.57
2023-05-22T12:26:00.992Z,12.75
2023-05-22T12:28:34.072Z,12.95
2023-05-22T12:31:00.889Z,16.02
2023-05-22T12:33:31.452Z,12.48
2023-05-22T12:35:58.942Z,12.18
2023-05-22T12:38:34.063Z,11.93
2023-05-22T12:41:02.518Z,13.35
2023-05-22T12:43:29.647Z,13.63
2023-05-22T12:45:56.800Z,11.55
2023-05-22T12:48:24.055Z,11.20
2023-05-22T12:50:51.350Z,10.80
2023-05-22T12:53:18.538Z,10.85
2023-05-22T12:55:45.811Z,10.90
2023-05-22T12:58:13.029Z,10.93
2023-05-22T13:00:40.572Z,10.50
2023-05-22T13:03:08.409Z,19.13
2023-05-22T13:05:35.886Z,11.48
2023-05-22T13:08:03.118Z,10.25
2023-05-22T13:10:30.670Z,9.98
2023-05-22T13:12:57.815Z,9.23
2023-05-22T13:15:29.338Z,8.55
2023-05-22T13:17:56.973Z,12.15
2023-05-22T13:20:25.089Z,7.38
2023-05-22T13:22:52.353Z,7.85
2023-05-22T13:25:20.568Z,8.00
2023-05-22T13:27:50.892Z,8.30
2023-05-22T13:30:18.115Z,7.80
2023-05-22T13:32:45.383Z,7.43
2023-05-22T13:35:12.170Z,8.68
2023-05-22T13:37:39.336Z,8.10
2023-05-22T13:40:08.075Z,7.20
2023-05-22T13:42:36.654Z,10.02
2023-05-22T13:45:04.605Z,7.75
2023-05-22T13:47:31.635Z,9.18
2023-05-22T13:49:58.365Z,7.72
2023-05-22T13:52:25.285Z,7.20
2023-05-22T13:54:52.390Z,9.85
2023-05-22T13:57:19.106Z,7.72
2023-05-22T13:59:46.029Z,7.40
2023-05-22T14:02:14.173Z,7.93
2023-05-22T14:04:43.197Z,8.13
2023-05-22T14:07:10.077Z,7.47
2023-05-22T14:09:36.813Z,7.93
2023-05-22T14:12:03.788Z,7.05
2023-05-22T14:14:30.500Z,7.28
2023-05-22T14:16:57.250Z,6.82
2023-05-22T14:19:24.614Z,8.35
2023-05-22T14:21:51.796Z,8.70
2023-05-22T14:24:18.648Z,8.40
2023-05-22T14:26:45.378Z,9.73
2023-05-22T14:29:12.520Z,9.27
2023-05-22T14:31:51.994Z,11.32
2023-05-22T14:34:18.912Z,8.93
2023-05-22T14:36:46.432Z,10.50
2023-05-22T14:39:13.114Z,10.20
2023-05-22T14:41:39.776Z,8.60
2023-05-22T14:44:06.646Z,11.98
2023-05-22T14:46:35.534Z,8.07
2023-05-22T14:49:02.381Z,11.13
2023-05-22T14:51:29.218Z,8.52
2023-05-22T14:53:57.301Z,8.45
2023-05-22T14:56:25.394Z,7.65
2023-05-22T14:58:52.203Z,6.55
2023-05-22T15:01:21.027Z,8.63
2023-05-22T15:03:47.876Z,6.25
2023-05-22T15:06:15.078Z,6.93
2023-05-22T15:08:41.823Z,9.13
2023-05-22T15:11:08.507Z,6.03
2023-05-22T15:13:35.248Z,5.75
2023-05-22T15:16:01.932Z,5.88
2023-05-22T15:18:28.676Z,7.18
2023-05-22T15:20:55.600Z,5.40
2023-05-22T15:23:25.237Z,6.55
2023-05-22T15:25:55.121Z,5.65
2023-05-22T15:28:21.932Z,5.63
2023-05-22T15:30:48.923Z,6.10
2023-05-22T15:33:16.066Z,5.32
2023-05-22T15:35:46.567Z,4.63
2023-05-22T15:38:13.868Z,7.93
2023-05-22T15:40:41.396Z,4.43
2023-05-22T15:43:08.164Z,4.43
2023-05-22T15:45:36.801Z,4.57
2023-05-22T15:48:05.417Z,4.68
2023-05-22T15:50:33.750Z,4.40
2023-05-22T15:55:28.183Z,4.47
2023-05-22T15:57:55.068Z,4.10
2023-05-22T16:00:21.902Z,3.60
2023-05-22T16:02:49.317Z,3.55
2023-05-22T16:05:17.798Z,5.17
2023-05-22T16:10:11.548Z,4.18
2023-05-22T16:12:41.665Z,3.88
2023-05-22T16:15:10.953Z,3.25
2023-05-22T16:17:39.440Z,3.20
2023-05-22T16:20:07.285Z,5.88
2023-05-22T16:22:47.372Z,4.25
2023-05-22T16:25:16.931Z,4.18
2023-05-22T16:27:44.185Z,3.17
2023-05-22T16:30:12.506Z,4.00
2023-05-22T16:32:39.325Z,4.00
2023-05-22T16:35:06.463Z,4.63
2023-05-22T16:37:33.909Z,4.88
2023-05-22T16:40:00.953Z,4.63
2023-05-22T16:42:27.762Z,5.18
2023-05-22T16:44:54.506Z,4.00
2023-05-22T16:47:22.071Z,3.40
2023-05-22T16:49:49.406Z,3.92
2023-05-22T16:52:18.074Z,4.07
2023-05-22T16:54:44.871Z,3.55
2023-05-22T16:57:11.571Z,3.45
2023-05-22T16:59:38.342Z,4.68
2023-05-22T17:02:05.452Z,3.72
2023-05-22T17:04:32.193Z,4.93
2023-05-22T17:06:58.905Z,3.30
2023-05-22T17:09:27.441Z,4.03
2023-05-22T17:11:54.596Z,3.75
2023-05-22T17:14:22.127Z,4.15
2023-05-22T17:16:49.251Z,4.40
2023-05-22T17:19:17.698Z,4.57
2023-05-22T17:21:44.657Z,4.95
2023-05-22T17:24:14.645Z,4.50
2023-05-22T17:26:42.052Z,7.07
2023-05-22T17:29:10.826Z,7.47
2023-05-22T17:31:39.441Z,4.80
2023-05-22T17:34:06.860Z,5.45
2023-05-22T17:36:35.036Z,7.38
2023-05-22T17:39:01.847Z,4.97
2023-05-22T17:41:28.624Z,5.50
2023-05-22T17:43:57.112Z,5.63
2023-05-22T17:46:23.939Z,5.22
2023-05-22T17:48:51.179Z,6.57
2023-05-22T17:51:18.027Z,6.00
2023-05-22T17:53:44.775Z,6.22
2023-05-22T17:56:12.669Z,6.05
2023-05-22T17:58:39.542Z,5.28
2023-05-22T18:01:06.415Z,5.35
2023-05-22T18:03:33.942Z,6.90
2023-05-22T18:06:00.912Z,5.82
2023-05-22T18:08:28.210Z,5.95
2023-05-22T18:10:55.806Z,5.70
2023-05-22T18:13:22.663Z,5.55
2023-05-22T18:15:51.295Z,5.78
2023-05-22T18:18:18.027Z,6.13
2023-05-22T18:20:46.139Z,5.95
2023-05-22T18:23:13.004Z,7.93
2023-05-22T18:25:39.766Z,6.57
2023-05-22T18:28:06.569Z,6.18
2023-05-22T18:30:33.409Z,6.97
2023-05-22T18:33:00.818Z,5.50
2023-05-22T18:35:28.749Z,5.90
2023-05-22T18:37:55.525Z,5.95
2023-05-22T18:40:22.259Z,6.25
2023-05-22T18:42:49.017Z,10.43
2023-05-22T18:45:16.234Z,6.07
2023-05-22T18:47:43.139Z,9.60
2023-05-22T18:50:10.534Z,6.75
2023-05-22T18:52:37.909Z,7.10
2023-05-22T18:55:05.746Z,6.80
2023-05-22T18:57:33.573Z,8.05
2023-05-22T19:00:00.288Z,5.10
2023-05-22T19:02:27.032Z,5.28
2023-05-22T19:04:53.854Z,6.18
2023-05-22T19:07:21.232Z,5.65
2023-05-22T19:09:49.595Z,9.07
2023-05-22T19:14:43.103Z,5.85
2023-05-22T19:17:10.309Z,6.03
2023-05-22T19:19:37.315Z,5.55
2023-05-22T19:22:05.219Z,5.40
2023-05-22T19:24:31.998Z,6.28
2023-05-22T19:26:58.735Z,5.43
2023-05-22T19:29:25.517Z,6.70
2023-05-22T19:31:52.227Z,6.43
2023-05-22T19:34:19.007Z,7.63
2023-05-22T19:36:46.114Z,6.40
2023-05-22T19:39:12.939Z,6.93
2023-05-22T19:41:39.743Z,5.88
2023-05-22T19:44:06.578Z,7.05
2023-05-22T19:46:33.355Z,7.28
2023-05-22T19:49:00.152Z,7.57
2023-05-22T19:51:27.859Z,7.05
2023-05-22T19:53:54.685Z,7.63
2023-05-22T19:56:21.401Z,6.70
2023-05-22T19:58:48.274Z,7.72
2023-05-22T20:01:15.132Z,8.20
2023-05-22T20:03:49.195Z,13.02
2023-05-22T20:06:16.146Z,9.70
2023-05-22T20:08:44.149Z,12.57
2023-05-22T20:11:11.009Z,10.77
2023-05-22T20:13:37.737Z,12.23
2023-05-22T20:16:11.464Z,12.10
2023-05-22T20:18:41.346Z,10.63
2023-05-22T20:21:09.724Z,10.95
2023-05-22T20:26:03.450Z,11.25
2023-05-22T20:28:30.762Z,10.93
2023-05-22T20:30:57.781Z,11.25
2023-05-22T20:33:24.525Z,9.40
2023-05-22T20:35:54.602Z,11.52
2023-05-22T20:38:22.377Z,11.05
2023-05-22T20:40:55.750Z,9.32
2023-05-22T20:43:22.429Z,8.80
2023-05-22T20:45:49.210Z,6.95
2023-05-22T20:48:16.548Z,6.57
2023-05-22T20:50:43.458Z,5.18
2023-05-22T20:53:10.247Z,5.32
2023-05-22T20:55:37.120Z,4.78
2023-05-22T20:58:03.905Z,4.85
2023-05-22T21:00:30.607Z,5.03
2023-05-22T21:02:58.493Z,4.00
2023-05-22T21:05:26.210Z,3.58
2023-05-22T21:07:53.012Z,5.78
2023-05-22T21:10:19.793Z,5.50
2023-05-22T21:12:46.560Z,3.90
2023-05-22T21:15:13.321Z,4.80
2023-05-22T21:17:40.195Z,3.83
2023-05-22T21:20:08.078Z,4.82
2023-05-22T21:22:34.849Z,3.75
2023-05-22T21:25:01.566Z,3.92
2023-05-22T21:27:28.311Z,3.40
2023-05-22T21:29:55.000Z,4.95
2023-05-22T21:32:21.866Z,4.35
2023-05-22T21:34:48.619Z,5.63
2023-05-22T21:37:15.375Z,3.97
2023-05-22T21:39:42.076Z,3.65
2023-05-22T21:42:08.900Z,3.83
2023-05-22T21:44:35.925Z,3.95
2023-05-22T21:47:02.837Z,3.95
2023-05-22T21:49:29.558Z,3.78
2023-05-22T21:51:56.321Z,3.97
2023-05-22T21:54:23.436Z,4.80
2023-05-22T21:56:50.608Z,4.43
2023-05-22T21:59:17.844Z,4.90
2023-05-22T22:01:45.076Z,4.82
2023-05-22T22:04:12.319Z,5.65
2023-05-22T22:06:39.212Z,8.50
2023-05-22T22:09:05.947Z,5.35
2023-05-22T22:11:33.092Z,5.35
2023-05-22T22:13:59.827Z,5.47
2023-05-22T22:16:27.822Z,5.97
2023-05-22T22:18:54.861Z,6.22
2023-05-22T22:21:22.780Z,5.68
2023-05-22T22:23:49.523Z,5.45
2023-05-22T22:26:16.408Z,5.60
2023-05-22T22:28:43.221Z,5.53
2023-05-22T22:31:10.070Z,6.47
2023-05-22T22:33:37.195Z,7.60
2023-05-22T22:36:04.376Z,6.00
2023-05-22T22:38:32.903Z,6.57
2023-05-22T22:41:01.278Z,7.38
2023-05-22T22:43:28.052Z,6.78
2023-05-22T22:45:55.926Z,5.97
2023-05-22T22:48:22.909Z,6.70
2023-05-22T22:50:50.092Z,7.20
2023-05-22T22:53:16.983Z,8.05
2023-05-22T22:55:44.399Z,9.85
2023-05-22T22:58:11.289Z,7.35
2023-05-22T23:00:38.386Z,9.75
2023-05-22T23:03:05.182Z,7.70
2023-05-22T23:05:32.096Z,8.45
2023-05-22T23:08:01.899Z,12.60
2023-05-22T23:10:29.330Z,8.05
2023-05-22T23:12:57.650Z,12.75
2023-05-22T23:17:52.106Z,9.98
2023-05-22T23:20:19.531Z,12.77
2023-05-22T23:22:46.705Z,11.80
2023-05-22T23:25:13.826Z,10.77
2023-05-22T23:27:40.973Z,11.48
2023-05-22T23:30:08.950Z,10.95
2023-05-22T23:32:35.872Z,8.77
2023-05-22T23:35:02.641Z,8.90
2023-05-22T23:37:29.334Z,8.98
2023-05-22T23:39:56.035Z,10.93
2023-05-22T23:42:22.971Z,9.80
2023-05-22T23:44:49.748Z,15.30
2023-05-22T23:47:18.001Z,16.95
2023-05-22T23:49:45.707Z,15.13
2023-05-22T23:52:13.081Z,14.05
2023-05-22T23:54:40.350Z,13.30
2023-05-22T23:57:07.566Z,13.70
2023-05-22T23:59:34.849Z,13.73
